Time;durP1;ratioP1;P1;durP2;ratioP2;P2;SDS_P1;SDS_P2;PMS_P1;PMS_P2;Temp;Humidity;BMP_temperature;BMP_pressure;BME280_temperature;BME280_humidity;BME280_pressure;Samples;Min_cycle;Max_cycle;Signal;HPM_P1;HPM_P2
2022/03/24 00:00:36;;;;;;;19.37;14.50;;;;;;;6.52;nan;99209.72;5054398;28;20221;-70
2022/03/24 00:03:02;;;;;;;20.60;13.17;;;;;;;6.55;nan;99213.84;5054057;28;20651;-70
2022/03/24 00:05:29;;;;;;;17.57;13.03;;;;;;;6.53;nan;99207.91;5054637;28;20256;-70
2022/03/24 00:07:55;;;;;;;16.97;13.17;;;;;;;6.49;nan;99203.94;5054285;28;20209;-70
2022/03/24 00:10:23;;;;;;;19.50;13.23;;;;;;;6.48;nan;99211.06;5054227;28;20664;-70
2022/03/24 00:12:51;;;;;;;19.57;13.73;;;;;;;6.43;nan;99202.78;5054504;28;20209;-70
2022/03/24 00:15:17;;;;;;;21.40;13.57;;;;;;;6.37;nan;99192.03;5054477;28;20628;-70
2022/03/24 00:17:44;;;;;;;18.73;13.70;;;;;;;6.32;nan;99197.81;5054369;28;20209;-70
2022/03/24 00:20:12;;;;;;;22.40;13.60;;;;;;;6.27;nan;99194.03;5054299;28;20228;-70
2022/03/24 00:22:39;;;;;;;17.43;13.47;;;;;;;6.24;nan;99192.53;5054305;28;20237;-70
2022/03/24 00:25:06;;;;;;;18.33;13.73;;;;;;;6.26;nan;99195.03;5054192;28;20299;-70
2022/03/24 00:27:33;;;;;;;19.27;12.93;;;;;;;6.30;nan;99193.69;5054263;28;20209;-70
2022/03/24 00:29:59;;;;;;;19.17;13.87;;;;;;;6.25;nan;99194.19;5053938;28;20240;-70
2022/03/24 00:32:26;;;;;;;18.77;13.50;;;;;;;6.24;nan;99187.25;5054157;28;20205;-70
2022/03/24 00:34:52;;;;;;;17.13;13.03;;;;;;;6.22;nan;99194.53;5053790;28;20244;-70
2022/03/24 00:37:19;;;;;;;18.80;13.90;;;;;;;6.17;nan;99186.28;5053648;28;20692;-70
2022/03/24 00:39:45;;;;;;;18.57;13.67;;;;;;;6.13;nan;99187.59;5053687;28;20224;-70
2022/03/24 00:42:12;;;;;;;25.50;13.90;;;;;;;6.20;nan;99187.75;5053726;28;20671;-70
2022/03/24 00:44:44;;;;;;;21.37;13.90;;;;;;;6.13;nan;99186.75;5053937;28;20225;-70
2022/03/24 00:47:11;;;;;;;18.93;14.20;;;;;;;6.10;nan;99187.09;5053694;28;20636;-70
2022/03/24 00:49:39;;;;;;;18.60;14.13;;;;;;;6.00;nan;99186.41;5053884;28;20202;-70
2022/03/24 00:52:06;;;;;;;16.73;14.83;;;;;;;5.96;nan;99180.63;5053545;28;20556;-70
2022/03/24 00:54:34;;;;;;;21.30;14.37;;;;;;;5.91;nan;99182.94;5053450;28;20704;-70
2022/03/24 00:57:01;;;;;;;16.43;13.60;;;;;;;5.87;nan;99181.59;5053458;28;20687;-70
2022/03/24 00:59:27;;;;;;;26.47;14.43;;;;;;;5.92;nan;99178.50;5053295;28;20236;-70
2022/03/24 01:01:55;;;;;;;17.37;13.70;;;;;;;5.93;nan;99180.94;5053754;28;20201;-70
2022/03/24 01:04:21;;;;;;;18.93;13.17;;;;;;;5.87;nan;99178.97;5054145;28;20703;-70
2022/03/24 01:06:48;;;;;;;21.37;14.77;;;;;;;5.83;nan;99179.47;5053705;28;20205;-70
2022/03/24 01:09:14;;;;;;;21.37;13.90;;;;;;;5.78;nan;99179.06;5053599;28;20209;-70
2022/03/24 01:11:40;;;;;;;20.23;13.80;;;;;;;5.71;nan;99175.44;5053600;28;20209;-70
2022/03/24 01:14:08;;;;;;;16.83;13.10;;;;;;;5.67;nan;99172.28;5052492;28;20256;-70
2022/03/24 01:16:35;;;;;;;19.23;14.43;;;;;;;5.65;nan;99173.44;5053459;28;20215;-70
2022/03/24 01:19:02;;;;;;;20.40;14.13;;;;;;;5.66;nan;99167.97;5053461;28;20251;-70
2022/03/24 01:21:28;;;;;;;19.07;13.73;;;;;;;5.65;nan;99160.25;5053503;28;20209;-70
2022/03/24 01:23:55;;;;;;;19.03;14.10;;;;;;;5.67;nan;99163.53;5053360;28;20236;-70
2022/03/24 01:26:22;;;;;;;20.03;13.97;;;;;;;5.62;nan;99163.22;5054238;28;20205;-70
2022/03/24 01:28:50;;;;;;;20.73;14.23;;;;;;;5.57;nan;99157.59;5053415;28;20205;-70
2022/03/24 01:31:16;;;;;;;19.90;13.77;;;;;;;5.57;nan;99157.59;5053074;28;20201;-70
2022/03/24 01:33:43;;;;;;;18.77;13.80;;;;;;;5.52;nan;99160.69;5053173;28;20212;-70
2022/03/24 01:36:10;;;;;;;18.93;14.30;;;;;;;5.55;nan;99159.53;5053928;28;20288;-70
2022/03/24 01:38:38;;;;;;;16.80;13.67;;;;;;;5.56;nan;99161.22;5053386;28;20212;-70
2022/03/24 01:41:07;;;;;;;17.83;14.30;;;;;;;5.56;nan;99156.75;5053029;28;20690;-70
2022/03/24 01:43:34;;;;;;;18.37;13.80;;;;;;;5.55;nan;99151.63;5053236;28;20262;-70
2022/03/24 01:46:00;;;;;;;18.80;13.90;;;;;;;5.52;nan;99155.41;5053027;28;20686;-70
2022/03/24 01:48:27;;;;;;;15.30;13.37;;;;;;;5.53;nan;99145.72;5053231;28;20206;-70
2022/03/24 01:50:54;;;;;;;18.17;13.17;;;;;;;5.43;nan;99151.09;5053219;28;20210;-70
2022/03/24 01:53:21;;;;;;;18.87;14.07;;;;;;;5.32;nan;99150.56;5053156;28;20209;-70
2022/03/24 01:55:50;;;;;;;18.63;13.67;;;;;;;5.32;nan;99147.94;5053132;28;20244;-70
2022/03/24 01:58:17;;;;;;;16.17;13.20;;;;;;;5.29;nan;99153.53;5053156;28;20209;-71
2022/03/24 02:00:44;;;;;;;16.87;13.80;;;;;;;5.28;nan;99157.97;5053090;28;20221;-70
2022/03/24 02:03:14;;;;;;;16.30;13.47;;;;;;;5.27;nan;99155.50;5053135;28;20205;-70
2022/03/24 02:05:42;;;;;;;20.27;14.13;;;;;;;5.25;nan;99146.94;5053263;28;20225;-70
2022/03/24 02:08:08;;;;;;;19.60;13.47;;;;;;;5.23;nan;99148.88;5053079;28;20205;-70
2022/03/24 02:10:36;;;;;;;16.30;13.00;;;;;;;5.22;nan;99152.50;5052964;28;20209;-70
2022/03/24 02:13:04;;;;;;;23.13;14.83;;;;;;;5.26;nan;99143.31;5052672;28;20201;-70
2022/03/24 02:15:32;;;;;;;19.40;13.53;;;;;;;5.25;nan;99145.09;5052953;28;20229;-70
2022/03/24 02:17:59;;;;;;;17.97;13.60;;;;;;;5.17;nan;99147.72;5052954;28;20213;-70
2022/03/24 02:20:28;;;;;;;17.57;14.20;;;;;;;5.16;nan;99147.88;5053359;28;20229;-70
2022/03/24 02:22:54;;;;;;;15.60;13.17;;;;;;;5.14;nan;99144.56;5052635;28;20210;-70
2022/03/24 02:25:22;;;;;;;17.97;12.73;;;;;;;5.12;nan;99144.75;5052947;28;20232;-70
2022/03/24 02:27:55;;;;;;;16.37;12.87;;;;;;;5.08;nan;99145.22;5056328;28;20703;-70
2022/03/24 02:30:21;;;;;;;19.00;13.27;;;;;;;5.07;nan;99149.63;5056285;28;20715;-70
2022/03/24 02:32:48;;;;;;;18.50;13.83;;;;;;;5.08;nan;99146.03;5056481;28;20205;-70
2022/03/24 02:35:14;;;;;;;16.87;12.47;;;;;;;5.05;nan;99145.50;5056068;28;20233;-70
2022/03/24 02:37:41;;;;;;;18.83;13.13;;;;;;;4.99;nan;99144.34;5056376;28;20206;-70
2022/03/24 02:40:08;;;;;;;23.00;14.07;;;;;;;4.89;nan;99137.53;5056238;28;20225;-70
2022/03/24 02:42:38;;;;;;;23.37;13.53;;;;;;;4.88;nan;99135.91;5055877;28;20611;-70
2022/03/24 02:45:07;;;;;;;23.97;13.90;;;;;;;4.89;nan;99138.34;5056196;28;20225;-70
2022/03/24 02:47:34;;;;;;;26.10;13.80;;;;;;;4.82;nan;99139.13;5055888;28;20247;-70
2022/03/24 02:50:01;;;;;;;18.60;13.30;;;;;;;4.81;nan;99140.13;5056177;28;20205;-70
2022/03/24 02:52:28;;;;;;;17.30;13.03;;;;;;;4.79;nan;99132.38;5055792;28;20209;-70
2022/03/24 02:54:55;;;;;;;22.53;14.20;;;;;;;4.81;nan;99142.75;5055993;28;20225;-70
2022/03/24 02:57:21;;;;;;;23.63;14.07;;;;;;;4.72;nan;99138.44;5055889;28;20647;-70
2022/03/24 02:59:48;;;;;;;24.67;13.63;;;;;;;4.72;nan;99144.53;5055607;28;20703;-70
2022/03/24 03:02:17;;;;;;;33.27;14.90;;;;;;;4.62;nan;99145.63;5055948;28;20231;-70
2022/03/24 03:04:49;;;;;;;28.73;14.37;;;;;;;4.62;nan;99146.41;5056365;28;20229;-70
2022/03/24 03:07:15;;;;;;;24.20;14.20;;;;;;;4.59;nan;99143.28;5055858;28;20193;-70
2022/03/24 03:09:42;;;;;;;21.33;14.70;;;;;;;4.56;nan;99139.16;5055738;28;20201;-70
2022/03/24 03:12:10;;;;;;;21.27;13.87;;;;;;;4.55;nan;99147.19;5055770;28;20205;-70
2022/03/24 03:14:36;;;;;;;19.33;13.47;;;;;;;4.49;nan;99148.66;5055676;28;20295;-70
2022/03/24 03:17:03;;;;;;;19.07;13.67;;;;;;;4.52;nan;99155.44;5055666;28;20217;-70
2022/03/24 03:19:29;;;;;;;20.20;12.97;;;;;;;4.51;nan;99144.06;5055579;28;20288;-70
2022/03/24 03:21:57;;;;;;;14.60;12.50;;;;;;;4.46;nan;99151.59;5055442;28;20229;-70
2022/03/24 03:24:23;;;;;;;17.20;13.03;;;;;;;4.47;nan;99150.63;5055485;28;20241;-70
2022/03/24 03:26:52;;;;;;;15.97;12.83;;;;;;;4.48;nan;99147.00;5055183;28;20300;-70
2022/03/24 03:29:20;;;;;;;18.10;13.73;;;;;;;4.50;nan;99146.84;5055482;28;20201;-70
2022/03/24 03:31:47;;;;;;;15.90;13.03;;;;;;;4.45;nan;99149.94;5055936;28;20205;-70
2022/03/24 03:34:14;;;;;;;19.80;13.83;;;;;;;4.42;nan;99152.03;5055125;28;20240;-70
2022/03/24 03:36:41;;;;;;;18.90;13.07;;;;;;;4.52;nan;99158.88;5054991;28;20532;-70
2022/03/24 03:39:08;;;;;;;18.00;13.53;;;;;;;4.49;nan;99153.09;5054259;28;20216;-70
2022/03/24 03:41:37;;;;;;;20.43;13.60;;;;;;;4.45;nan;99146.47;5055158;28;20236;-70
2022/03/24 03:44:04;;;;;;;18.63;14.07;;;;;;;4.46;nan;99150.75;5055069;28;20229;-70
2022/03/24 03:46:31;;;;;;;17.40;13.27;;;;;;;4.46;nan;99153.41;5054775;28;20216;-70
2022/03/24 03:48:57;;;;;;;19.20;13.47;;;;;;;4.37;nan;99155.16;5055030;28;20205;-70
2022/03/24 03:51:24;;;;;;;18.03;13.17;;;;;;;4.34;nan;99165.16;5054942;28;20201;-70
2022/03/24 03:53:51;;;;;;;19.50;13.90;;;;;;;4.28;nan;99158.69;5054879;28;20221;-70
2022/03/24 03:56:17;;;;;;;18.93;13.57;;;;;;;4.21;nan;99149.75;5054858;28;20232;-70
2022/03/24 03:58:43;;;;;;;15.63;13.00;;;;;;;4.21;nan;99151.56;5054764;28;20209;-70
2022/03/24 04:01:10;;;;;;;19.90;14.47;;;;;;;4.24;nan;99148.63;5054381;28;20719;-70
2022/03/24 04:03:39;;;;;;;17.50;12.67;;;;;;;4.26;nan;99152.78;5054619;28;20216;-70
2022/03/24 04:06:09;;;;;;;20.27;13.37;;;;;;;4.27;nan;99156.22;5054672;28;20201;-70
2022/03/24 04:08:36;;;;;;;14.43;12.13;;;;;;;4.26;nan;99160.69;5054272;28;20204;-71
2022/03/24 04:11:03;;;;;;;15.73;12.77;;;;;;;4.25;nan;99160.81;5055084;28;20213;-70
2022/03/24 04:13:31;;;;;;;17.37;12.57;;;;;;;4.22;nan;99154.06;5054423;28;20216;-70
2022/03/24 04:15:57;;;;;;;17.27;12.83;;;;;;;4.26;nan;99158.03;5054464;28;20227;-70
2022/03/24 04:18:23;;;;;;;16.73;13.13;;;;;;;4.26;nan;99168.56;5054285;28;20216;-70
2022/03/24 04:20:50;;;;;;;19.10;12.53;;;;;;;4.26;nan;99158.03;5055196;28;20221;-70
2022/03/24 04:23:17;;;;;;;18.37;13.17;;;;;;;4.30;nan;99161.19;5054406;28;20208;-70
2022/03/24 04:25:43;;;;;;;15.50;12.73;;;;;;;4.26;nan;99163.31;5053843;28;20735;-70
2022/03/24 04:28:10;;;;;;;17.63;12.77;;;;;;;4.27;nan;99166.75;5053916;28;20212;-70
2022/03/24 04:30:37;;;;;;;17.73;12.77;;;;;;;4.24;nan;99178.41;5054074;28;20206;-70
2022/03/24 04:33:04;;;;;;;18.37;12.70;;;;;;;4.18;nan;99165.88;5054075;28;20213;-70
2022/03/24 04:35:31;;;;;;;18.03;12.90;;;;;;;4.12;nan;99166.44;5053349;28;20251;-70
2022/03/24 04:37:57;;;;;;;16.47;13.70;;;;;;;4.08;nan;99165.13;5054313;28;20209;-70
2022/03/24 04:40:24;;;;;;;16.13;13.00;;;;;;;4.04;nan;99158.50;5053625;28;20217;-70
2022/03/24 04:42:53;;;;;;;19.23;13.70;;;;;;;4.04;nan;99165.56;5053684;28;20227;-70
2022/03/24 04:45:20;;;;;;;18.10;12.67;;;;;;;4.00;nan;99164.22;5053728;28;20229;-70
2022/03/24 04:47:48;;;;;;;18.43;13.33;;;;;;;3.99;nan;99171.28;5053760;28;20205;-70
2022/03/24 04:50:17;;;;;;;17.30;12.93;;;;;;;3.96;nan;99166.31;5052868;28;20621;-70
2022/03/24 04:52:43;;;;;;;18.03;13.33;;;;;;;3.91;nan;99163.31;5053771;28;20308;-70
2022/03/24 04:55:10;;;;;;;16.93;13.23;;;;;;;3.91;nan;99175.63;5053683;28;20232;-70
2022/03/24 04:57:37;;;;;;;18.17;13.70;;;;;;;3.82;nan;99174.72;5053778;28;20212;-70
2022/03/24 05:00:06;;;;;;;16.73;13.80;;;;;;;3.85;nan;99163.91;5053230;28;20222;-70
2022/03/24 05:02:33;;;;;;;15.93;13.50;;;;;;;3.81;nan;99172.25;5053615;28;20208;-70
2022/03/24 05:04:59;;;;;;;16.43;13.67;;;;;;;3.76;nan;99171.88;5053523;28;20221;-70
2022/03/24 05:07:26;;;;;;;16.50;13.80;;;;;;;3.78;nan;99172.53;5053475;28;20212;-70
2022/03/24 05:09:53;;;;;;;19.40;13.57;;;;;;;3.72;nan;99167.88;5053462;28;20333;-70
2022/03/24 05:12:20;;;;;;;17.23;13.00;;;;;;;3.63;nan;99180.13;5053360;28;20209;-71
2022/03/24 05:14:47;;;;;;;16.97;13.80;;;;;;;3.64;nan;99175.69;5053324;28;20225;-70
2022/03/24 05:17:14;;;;;;;17.90;13.40;;;;;;;3.54;nan;99177.56;5053284;28;20220;-70
2022/03/24 05:19:41;;;;;;;18.07;13.43;;;;;;;3.59;nan;99172.66;5053479;28;20205;-70
2022/03/24 05:22:08;;;;;;;18.87;13.77;;;;;;;3.63;nan;99174.03;5053282;28;20225;-70
2022/03/24 05:24:34;;;;;;;19.03;13.53;;;;;;;3.63;nan;99176.66;5053071;28;20335;-70
2022/03/24 05:27:00;;;;;;;24.83;14.10;;;;;;;3.70;nan;99180.38;5052982;28;20296;-70
2022/03/24 05:29:27;;;;;;;21.40;14.20;;;;;;;3.66;nan;99179.00;5052863;28;20216;-70
2022/03/24 05:31:53;;;;;;;19.77;13.97;;;;;;;3.61;nan;99176.81;5052829;28;20751;-70
2022/03/24 05:34:20;;;;;;;21.57;14.17;;;;;;;3.64;nan;99183.56;5053102;28;20716;-70
2022/03/24 05:36:46;;;;;;;22.00;14.10;;;;;;;3.70;nan;99180.38;5053090;28;20209;-70
2022/03/24 05:39:13;;;;;;;22.20;14.73;;;;;;;3.74;nan;99184.31;5052971;28;20571;-70
2022/03/24 05:41:39;;;;;;;21.77;13.30;;;;;;;3.81;nan;99180.97;5052840;28;20235;-70
2022/03/24 05:44:06;;;;;;;21.47;13.57;;;;;;;3.87;nan;99190.06;5052862;28;20225;-70
2022/03/24 05:46:44;;;;;;;19.77;13.40;;;;;;;3.90;nan;99184.50;5052836;28;20206;-70
2022/03/24 05:49:14;;;;;;;18.63;13.97;;;;;;;3.97;nan;99185.56;5052961;28;20220;-70
2022/03/24 05:51:42;;;;;;;19.60;14.83;;;;;;;4.03;nan;99180.50;5053365;28;20205;-69
2022/03/24 05:54:13;;;;;;;19.93;13.17;;;;;;;4.15;nan;99176.69;5052826;28;20225;-69
2022/03/24 05:56:39;;;;;;;19.97;14.17;;;;;;;4.24;nan;99185.47;5052837;28;20189;-70
2022/03/24 05:59:06;;;;;;;23.53;13.63;;;;;;;4.29;nan;99186.66;5052616;28;20209;-70
2022/03/24 06:01:33;;;;;;;19.00;13.97;;;;;;;4.36;nan;99186.88;5054738;28;20224;-70
2022/03/24 06:04:01;;;;;;;17.17;13.03;;;;;;;4.41;nan;99192.53;5056541;28;20252;-69
2022/03/24 06:06:27;;;;;;;26.33;13.30;;;;;;;4.47;nan;99197.19;5056728;28;20201;-70
2022/03/24 06:08:57;;;;;;;20.80;13.37;;;;;;;4.55;nan;99189.34;5056685;28;20209;-70
2022/03/24 06:11:24;;;;;;;18.93;12.40;;;;;;;4.63;nan;99194.66;5056544;28;20202;-70
2022/03/24 06:13:51;;;;;;;20.40;12.87;;;;;;;4.69;nan;99196.69;5056848;28;20228;-70
2022/03/24 06:16:18;;;;;;;18.73;14.23;;;;;;;4.74;nan;99199.69;5055889;28;20209;-69
2022/03/24 06:18:45;;;;;;;23.23;12.97;;;;;;;4.87;nan;99197.44;5056026;28;20210;-70
2022/03/24 06:21:12;;;;;;;17.10;13.13;;;;;;;4.98;nan;99208.56;5056317;28;20221;-70
2022/03/24 06:23:38;;;;;;;18.97;13.53;;;;;;;4.85;nan;99202.06;5055522;28;20205;-70
2022/03/24 06:26:04;;;;;;;19.47;13.53;;;;;;;4.80;nan;99210.41;5055776;28;20209;-70
2022/03/24 06:28:31;;;;;;;16.53;12.83;;;;;;;4.87;nan;99200.94;5056041;28;20205;-70
2022/03/24 06:30:58;;;;;;;19.43;13.37;;;;;;;4.99;nan;99202.34;5055406;28;20206;-70
2022/03/24 06:33:25;;;;;;;21.47;13.40;;;;;;;5.05;nan;99204.34;5055931;28;20209;-70
2022/03/24 06:35:51;;;;;;;21.30;13.90;;;;;;;5.15;nan;99197.13;5055275;28;20240;-69
2022/03/24 06:38:18;;;;;;;18.50;13.17;;;;;;;5.16;nan;99197.97;5055753;28;20612;-69
2022/03/24 06:40:44;;;;;;;18.17;14.03;;;;;;;5.30;nan;99200.00;5055453;28;20209;-70
2022/03/24 06:43:11;;;;;;;21.10;14.27;;;;;;;5.28;nan;99205.44;5056322;28;20220;-70
2022/03/24 06:45:39;;;;;;;20.80;14.27;;;;;;;5.14;nan;99192.84;5055770;28;20221;-70
2022/03/24 06:48:07;;;;;;;20.17;13.40;;;;;;;5.23;nan;99196.34;5055665;28;20209;-69
2022/03/24 06:50:35;;;;;;;22.40;13.73;;;;;;;5.37;nan;99198.38;5055468;28;20205;-70
2022/03/24 06:53:02;;;;;;;19.50;14.43;;;;;;;5.41;nan;99205.00;5055098;28;20209;-70
2022/03/24 06:55:29;;;;;;;25.73;14.73;;;;;;;5.46;nan;99200.06;5055132;28;20708;-70
2022/03/24 06:57:55;;;;;;;20.00;14.70;;;;;;;5.51;nan;99205.69;5055542;28;20205;-70
2022/03/24 07:00:22;;;;;;;22.37;14.43;;;;;;;5.47;nan;99210.47;5055423;28;20213;-70
2022/03/24 07:02:48;;;;;;;21.10;14.77;;;;;;;5.63;nan;99207.91;5055563;28;20225;-70
2022/03/24 07:05:16;;;;;;;20.07;14.47;;;;;;;5.64;nan;99211.34;5055094;28;20229;-70
2022/03/24 07:07:43;;;;;;;18.17;14.70;;;;;;;5.61;nan;99216.97;5055240;28;20212;-70
2022/03/24 07:10:10;;;;;;;20.93;15.63;;;;;;;5.91;nan;99213.75;5055205;28;20543;-70
2022/03/24 07:12:37;;;;;;;19.33;14.90;;;;;;;5.97;nan;99213.13;5053958;28;20205;-74
2022/03/24 07:15:08;;;;;;;22.23;15.37;;;;;;;6.25;nan;99210.03;5054769;28;20247;-70
2022/03/24 07:17:35;;;;;;;19.37;14.37;;;;;;;6.21;nan;99207.88;5055354;28;20262;-71
2022/03/24 07:20:04;;;;;;;22.67;15.70;;;;;;;6.25;nan;99206.56;5054943;28;20607;-71
2022/03/24 07:22:38;;;;;;;18.60;14.63;;;;;;;6.26;nan;99203.78;5054445;28;20692;-71
2022/03/24 07:25:09;;;;;;;21.70;13.90;;;;;;;6.46;nan;99205.09;5054910;28;20233;-71
2022/03/24 07:27:37;;;;;;;23.43;15.70;;;;;;;6.43;nan;99209.88;5054703;28;20659;-72
2022/03/24 07:30:05;;;;;;;21.90;15.70;;;;;;;6.50;nan;99209.06;5054444;28;20293;-69
2022/03/24 07:32:33;;;;;;;22.00;15.53;;;;;;;6.63;nan;99206.75;5054269;28;20683;-71
2022/03/24 07:35:00;;;;;;;21.67;15.80;;;;;;;6.54;nan;99206.91;5054111;28;20235;-70
2022/03/24 07:37:28;;;;;;;20.80;16.40;;;;;;;6.62;nan;99215.69;5054885;28;20235;-70
2022/03/24 07:39:55;;;;;;;25.37;16.47;;;;;;;6.61;nan;99215.84;5054562;28;20208;-70
2022/03/24 07:42:22;;;;;;;21.60;15.30;;;;;;;6.63;nan;99211.19;5054439;28;20699;-70
2022/03/24 07:44:48;;;;;;;18.73;15.23;;;;;;;6.89;nan;99211.84;5054205;28;20724;-70
2022/03/24 07:47:16;;;;;;;19.90;15.63;;;;;;;6.96;nan;99213.63;5054740;28;20213;-70
2022/03/24 07:49:42;;;;;;;23.37;15.60;;;;;;;7.01;nan;99210.50;5054716;28;20210;-71
2022/03/24 07:52:14;;;;;;;21.53;16.23;;;;;;;7.08;nan;99214.94;5054121;28;20683;-71
2022/03/24 07:54:51;;;;;;;26.03;16.13;;;;;;;7.40;nan;99216.66;5054216;28;20232;-71
2022/03/24 07:57:17;;;;;;;21.40;15.73;;;;;;;7.32;nan;99220.16;5054066;28;20197;-70
2022/03/24 07:59:43;;;;;;;19.37;15.67;;;;;;;7.32;nan;99221.97;5053874;28;20294;-70
2022/03/24 08:02:11;;;;;;;23.13;17.40;;;;;;;7.64;nan;99227.19;5054018;28;20217;-70
2022/03/24 08:04:37;;;;;;;22.50;16.37;;;;;;;7.59;nan;99226.84;5053862;28;20316;-70
2022/03/24 08:07:04;;;;;;;25.00;16.53;;;;;;;7.69;nan;99223.00;5054003;28;20201;-71
2022/03/24 08:09:33;;;;;;;24.87;15.60;;;;;;;7.75;nan;99224.13;5054243;28;20256;-70
2022/03/24 08:12:00;;;;;;;21.37;15.93;;;;;;;8.04;nan;99216.34;5053736;28;20201;-71
2022/03/24 08:14:27;;;;;;;24.37;15.77;;;;;;;8.05;nan;99220.69;5053788;28;20731;-70
2022/03/24 08:16:54;;;;;;;24.77;16.80;;;;;;;8.21;nan;99220.59;5054198;28;20216;-70
2022/03/24 08:19:21;;;;;;;22.10;15.10;;;;;;;8.07;nan;99224.78;5054183;28;20216;-71
2022/03/24 08:21:47;;;;;;;21.10;16.83;;;;;;;8.15;nan;99223.91;5053619;28;20636;-69
2022/03/24 08:24:14;;;;;;;20.80;16.07;;;;;;;8.28;nan;99225.00;5053323;28;20329;-70
2022/03/24 08:26:40;;;;;;;22.93;16.70;;;;;;;8.33;nan;99227.13;5053992;28;20303;-70
2022/03/24 08:29:07;;;;;;;23.90;16.67;;;;;;;8.67;nan;99219.56;5053862;28;20212;-71
2022/03/24 08:31:34;;;;;;;24.40;16.90;;;;;;;8.71;nan;99218.22;5053736;28;20220;-71
2022/03/24 08:34:00;;;;;;;24.37;17.17;;;;;;;8.62;nan;99225.44;5053196;28;20239;-70
2022/03/24 08:36:26;;;;;;;23.30;17.57;;;;;;;8.65;nan;99232.19;5054028;28;20195;-70
2022/03/24 08:38:56;;;;;;;21.73;16.90;;;;;;;8.75;nan;99224.81;5053411;28;20228;-70
2022/03/24 08:41:23;;;;;;;24.60;17.57;;;;;;;8.90;nan;99228.31;5053140;28;20729;-70
2022/03/24 08:43:50;;;;;;;25.20;16.73;;;;;;;9.07;nan;99212.09;5052842;28;20221;-70
2022/03/24 08:46:17;;;;;;;23.53;16.23;;;;;;;9.23;nan;99219.06;5053346;28;20209;-70
2022/03/24 08:48:43;;;;;;;23.53;16.87;;;;;;;9.48;nan;99220.41;5053171;28;20672;-70
2022/03/24 08:51:09;;;;;;;24.13;17.60;;;;;;;9.47;nan;99218.78;5053173;28;20211;-70
2022/03/24 08:53:36;;;;;;;24.40;16.47;;;;;;;9.73;nan;99216.47;5053235;28;20213;-70
2022/03/24 08:56:02;;;;;;;21.57;16.97;;;;;;;9.76;nan;99216.06;5053281;28;20236;-70
2022/03/24 08:58:29;;;;;;;23.63;17.67;;;;;;;9.77;nan;99215.91;5052781;28;20217;-70
2022/03/24 09:00:55;;;;;;;26.13;17.13;;;;;;;9.91;nan;99214.25;5053293;28;20204;-70
2022/03/24 09:03:22;;;;;;;26.77;18.50;;;;;;;10.27;nan;99209.78;5052898;28;20322;-70
2022/03/24 09:05:48;;;;;;;23.90;18.33;;;;;;;10.25;nan;99207.28;5053015;28;20317;-70
2022/03/24 09:08:14;;;;;;;22.97;17.73;;;;;;;10.29;nan;99210.38;5053088;28;20292;-70
2022/03/24 09:10:41;;;;;;;26.40;18.77;;;;;;;10.48;nan;99215.91;5053145;28;20201;-70
2022/03/24 09:13:08;;;;;;;26.27;17.93;;;;;;;10.70;nan;99214.88;5053178;28;20205;-70
2022/03/24 09:15:34;;;;;;;25.47;18.87;;;;;;;10.66;nan;99218.09;5052822;28;20229;-70
2022/03/24 09:18:00;;;;;;;24.57;18.67;;;;;;;10.54;nan;99215.13;5053792;28;20338;-70
2022/03/24 09:20:27;;;;;;;26.23;17.80;;;;;;;10.94;nan;99222.44;5052867;28;20218;-70
2022/03/24 09:22:53;;;;;;;27.67;19.83;;;;;;;10.87;nan;99226.88;5052652;28;20225;-70
2022/03/24 09:25:20;;;;;;;26.27;18.40;;;;;;;11.14;nan;99215.41;5053209;28;20236;-72
2022/03/24 09:27:47;;;;;;;29.03;19.07;;;;;;;11.47;nan;99215.63;5053011;28;20305;-71
2022/03/24 09:30:18;;;;;;;25.97;20.00;;;;;;;11.65;nan;99218.63;5052998;28;20544;-71
2022/03/24 09:32:45;;;;;;;28.60;19.77;;;;;;;11.65;nan;99220.47;5052895;28;20186;-71
2022/03/24 09:35:12;;;;;;;26.77;19.03;;;;;;;11.75;nan;99213.75;5052316;28;20722;-72
2022/03/24 09:37:38;;;;;;;28.07;19.43;;;;;;;11.82;nan;99224.44;5056979;28;20212;-71
2022/03/24 09:40:07;;;;;;;29.47;19.90;;;;;;;12.24;nan;99213.53;5057054;28;20568;-71
2022/03/24 09:42:35;;;;;;;29.00;20.37;;;;;;;12.52;nan;99211.53;5057007;28;20229;-72
2022/03/24 09:45:03;;;;;;;27.57;20.10;;;;;;;12.74;nan;99218.31;5056963;28;20230;-71
2022/03/24 09:47:31;;;;;;;25.90;19.77;;;;;;;12.93;nan;99218.31;5056907;28;20209;-71
2022/03/24 09:49:58;;;;;;;30.87;20.50;;;;;;;12.95;nan;99216.28;5056991;28;20213;-71
2022/03/24 09:52:24;;;;;;;27.23;20.20;;;;;;;12.78;nan;99216.88;5056889;28;20585;-71
2022/03/24 09:54:51;;;;;;;25.97;20.73;;;;;;;12.92;nan;99215.84;5056878;28;20240;-70
2022/03/24 09:57:17;;;;;;;26.13;20.27;;;;;;;13.15;nan;99214.44;5056333;28;20217;-70
2022/03/24 09:59:44;;;;;;;26.03;20.30;;;;;;;13.42;nan;99212.53;5056155;28;20215;-71
2022/03/24 10:02:11;;;;;;;26.03;20.80;;;;;;;13.19;nan;99210.34;5056767;28;20586;-71
2022/03/24 10:04:53;;;;;;;28.33;20.70;;;;;;;13.52;nan;99205.75;5056344;28;20276;-70
2022/03/24 10:07:24;;;;;;;29.97;20.03;;;;;;;13.57;nan;99211.28;5057473;28;20226;-70
2022/03/24 10:09:53;;;;;;;26.27;21.17;;;;;;;13.65;nan;99211.06;5057252;28;20253;-70
2022/03/24 10:12:21;;;;;;;25.53;19.90;;;;;;;13.64;nan;99200.56;5056345;28;20247;-71
2022/03/24 10:15:04;;;;;;;26.70;20.57;;;;;;;13.62;nan;99199.97;5056451;28;20225;-71
2022/03/24 10:17:32;;;;;;;30.83;20.43;;;;;;;13.75;nan;99194.59;5056336;28;20655;-71
2022/03/24 10:20:02;;;;;;;26.10;19.90;;;;;;;13.71;nan;99201.38;5056602;28;20205;-70
2022/03/24 10:22:29;;;;;;;25.30;20.00;;;;;;;13.92;nan;99199.25;5055989;28;20596;-71
2022/03/24 10:24:55;;;;;;;24.23;20.10;;;;;;;13.82;nan;99196.19;5056089;28;20603;-70
2022/03/24 10:27:24;;;;;;;29.33;19.37;;;;;;;14.29;nan;99195.78;5056016;28;20566;-70
2022/03/24 10:29:56;;;;;;;25.30;19.20;;;;;;;14.52;nan;99192.56;5056174;28;20216;-71
2022/03/24 10:32:28;;;;;;;23.67;19.37;;;;;;;14.36;nan;99193.06;5055769;28;20576;-70
2022/03/24 10:35:08;;;;;;;25.40;18.87;;;;;;;14.58;nan;99191.69;5055716;28;20240;-70
2022/03/24 10:37:35;;;;;;;20.93;17.37;;;;;;;14.72;nan;99186.03;5056175;28;20201;-70
2022/03/24 10:40:05;;;;;;;20.17;17.43;;;;;;;15.03;nan;99193.19;5055613;28;20668;-70
2022/03/24 10:42:34;;;;;;;22.10;17.37;;;;;;;15.31;nan;99197.03;5056099;28;20225;-70
2022/03/24 10:45:25;;;;;;;23.77;18.30;;;;;;;15.53;nan;99195.59;5055905;28;20675;-70
2022/03/24 10:47:51;;;;;;;21.20;17.40;;;;;;;15.56;nan;99188.97;5055797;28;20209;-70
2022/03/24 10:50:28;;;;;;;23.20;18.30;;;;;;;15.67;nan;99189.06;5055214;28;20216;-70
2022/03/24 10:52:57;;;;;;;20.53;18.33;;;;;;;15.62;nan;99191.59;5055235;28;20637;-70
2022/03/24 10:55:36;;;;;;;22.47;18.77;;;;;;;15.69;nan;99181.59;5055028;28;20590;-70
2022/03/24 10:58:07;;;;;;;20.47;17.63;;;;;;;15.75;nan;99179.88;5055414;28;20210;-70
2022/03/24 11:00:34;;;;;;;20.83;16.17;;;;;;;15.71;nan;99184.06;5055767;28;20209;-69
2022/03/24 11:03:02;;;;;;;17.80;15.53;;;;;;;15.74;nan;99180.94;5055207;28;20599;-70
2022/03/24 11:05:28;;;;;;;18.00;16.10;;;;;;;15.77;nan;99185.81;5055669;28;20299;-70
2022/03/24 11:07:56;;;;;;;20.97;16.77;;;;;;;15.92;nan;99189.75;5055319;28;20205;-70
2022/03/24 11:10:23;;;;;;;17.43;15.50;;;;;;;15.49;nan;99180.19;5055064;28;20660;-70
2022/03/24 11:12:53;;;;;;;18.03;16.07;;;;;;;16.00;nan;99186.78;5055157;28;20567;-70
2022/03/24 11:15:19;;;;;;;18.47;16.30;;;;;;;16.09;nan;99174.69;5054916;28;20224;-70
2022/03/24 11:17:46;;;;;;;18.73;16.83;;;;;;;16.11;nan;99180.63;5054798;28;20243;-69
2022/03/24 11:20:16;;;;;;;22.93;18.13;;;;;;;16.12;nan;99171.56;5055103;28;20209;-70
2022/03/24 11:23:00;;;;;;;21.43;18.10;;;;;;;16.25;nan;99163.34;5054548;28;20276;-70
2022/03/24 11:25:29;;;;;;;19.33;17.17;;;;;;;16.16;nan;99170.06;5054657;28;20221;-70
2022/03/24 11:27:56;;;;;;;19.73;17.57;;;;;;;16.23;nan;99164.59;5054879;28;20213;-70
2022/03/24 11:30:25;;;;;;;16.90;15.03;;;;;;;16.16;nan;99164.69;5054725;28;20212;-70
2022/03/24 11:32:54;;;;;;;17.83;15.90;;;;;;;15.92;nan;99167.50;5054641;28;20202;-70
2022/03/24 11:35:22;;;;;;;21.17;15.73;;;;;;;15.91;nan;99160.47;5054262;28;20324;-70
2022/03/24 11:37:51;;;;;;;18.57;16.67;;;;;;;16.00;nan;99161.81;5054122;28;20211;-70
2022/03/24 11:40:20;;;;;;;20.97;17.63;;;;;;;16.06;nan;99155.56;5054971;28;20620;-70